.
WxDataArchive / Data Records for 2009-11-15
2009-11-14 November 2009 2009-11-16

Data Records for Sunday, 15 November 2009

Time	Temp	Chill	HIndex	Humid	Dewpt	 Wind 	HiWind	WindDir	Rain 	Barom 
-----	----	-----	------	-----	-----	------	------	-------	-----	----- 
00:00	57.8	57.8	57.8	65	46.1	1	3	248	0.00	29.904 
00:05	57.8	57.8	57.8	65	46.1	0	3	248	0.00	29.904 
00:10	57.8	57.8	57.8	65	46.1	0	3	248	0.00	29.904 
00:15	57.8	57.8	57.8	66	46.5	0	2	248	0.00	29.905 
00:20	57.8	57.8	57.8	66	46.5	0	1	248	0.00	29.905 
00:25	57.8	57.8	57.8	66	46.5	1	4	248	0.00	29.905 
00:30	57.8	57.8	57.8	66	46.5	0	2	248	0.00	29.907 
00:35	57.6	57.6	57.6	66	46.3	0	2	248	0.00	29.907 
00:40	57.6	57.6	57.6	66	46.3	0	2	248	0.00	29.907 
00:45	57.6	57.6	57.6	66	46.3	0	2	248	0.00	29.901 
00:50	57.5	57.5	57.5	67	46.6	0	2	248	0.00	29.901 
00:55	57.5	57.5	57.5	67	46.6	0	2	248	0.00	29.901 
01:00	57.5	57.5	57.5	67	46.6	0	4	248	0.00	29.905 
01:05	57.3	57.3	57.3	68	46.8	0	2	270	0.00	29.905 
01:10	57.2	57.2	57.2	68	46.7	1	4	270	0.00	29.905 
01:15	57.2	57.2	57.2	68	46.7	1	3	248	0.00	29.901 
01:20	57.2	57.2	57.2	68	46.7	1	4	248	0.00	29.901 
01:25	57.2	57.2	57.2	68	46.7	1	4	248	0.00	29.901 
01:30	57.2	57.2	57.2	68	46.7	1	4	248	0.00	29.909 
01:35	57.3	57.3	57.3	68	46.8	1	4	248	0.00	29.909 
01:40	57.3	57.3	57.3	68	46.8	1	6	270	0.00	29.909 
01:45	57.3	57.3	57.3	69	47.2	1	5	248	0.00	29.917 
01:50	57.3	57.3	57.3	69	47.2	0	2	248	0.00	29.917 
01:55	57.3	57.3	57.3	69	47.2	0	2	248	0.00	29.917 
02:00	57.3	57.3	57.3	69	47.2	0	1	248	0.00	29.919 
02:05	57.3	57.3	57.3	69	47.2	1	3	248	0.00	29.919 
02:10	57.3	57.3	57.3	69	47.2	0	2	248	0.00	29.919 
02:15	57.3	57.3	57.3	69	47.2	0	3	248	0.00	29.911 
02:20	57.3	57.3	57.3	69	47.2	0	3	248	0.00	29.911 
02:25	57.2	57.2	57.2	69	47.1	0	1	248	0.00	29.911 
02:30	57.2	57.2	57.2	70	47.5	0	2	248	0.00	29.911 
02:35	57.2	57.2	57.2	70	47.5	0	2	248	0.00	29.911 
02:40	57.2	57.2	57.2	70	47.5	0	3	248	0.00	29.911 
02:45	57.2	57.2	57.2	70	47.5	0	2	248	0.00	29.925 
02:50	57.2	57.2	57.2	70	47.5	0	2	248	0.00	29.925 
02:55	57.2	57.2	57.2	70	47.5	0	2	248	0.00	29.925 
03:00	57.2	57.2	57.2	70	47.5	0	3	248	0.00	29.920 
03:05	57.2	57.2	57.2	71	47.9	0	1	248	0.00	29.920 
03:10	57.2	57.2	57.2	71	47.9	0	2	248	0.00	29.920 
03:15	57.2	57.2	57.2	71	47.9	0	2	248	0.00	29.924 
03:20	57.2	57.2	57.2	71	47.9	0	2	248	0.00	29.924 
03:25	57.2	57.2	57.2	71	47.9	0	1	248	0.00	29.924 
03:30	57.0	57.0	57.0	72	48.1	0	1	248	0.00	29.924 
03:35	57.0	57.0	57.0	72	48.1	0	2	248	0.00	29.924 
03:40	57.0	57.0	57.0	72	48.1	1	2	248	0.00	29.924 
03:45	57.0	57.0	57.0	72	48.1	0	3	248	0.00	29.927 
03:50	57.0	57.0	57.0	72	48.1	0	2	248	0.00	29.927 
03:55	57.0	57.0	57.0	72	48.1	0	2	248	0.00	29.927 
04:00	57.0	57.0	57.0	72	48.1	0	1	248	0.00	29.927 
04:05	57.0	57.0	57.0	72	48.1	0	0	---	0.00	29.927 
04:10	56.9	56.9	56.9	72	48.0	0	2	248	0.00	29.927 
04:15	56.9	56.9	56.9	72	48.0	0	2	248	0.00	29.929 
04:20	56.7	56.7	56.7	73	48.1	0	1	248	0.00	29.929 
04:25	56.7	56.7	56.7	73	48.1	0	0	---	0.00	29.929 
04:30	56.6	56.6	56.6	73	48.0	0	0	---	0.00	29.933 
04:35	56.6	56.6	56.6	73	48.0	0	2	248	0.00	29.933 
04:40	56.6	56.6	56.6	73	48.0	0	0	---	0.00	29.933 
04:45	56.6	56.6	56.6	74	48.4	0	1	248	0.00	29.938 
04:50	56.6	56.6	56.6	74	48.4	0	1	248	0.00	29.938 
04:55	56.6	56.6	56.6	74	48.4	0	2	248	0.00	29.938 
05:00	56.6	56.6	56.6	74	48.4	1	3	248	0.00	29.940 
05:05	56.6	56.6	56.6	74	48.4	0	1	248	0.00	29.940 
05:10	56.6	56.6	56.6	74	48.4	0	3	248	0.00	29.940 
05:15	56.6	56.6	56.6	74	48.4	0	2	248	0.00	29.950 
05:20	56.7	56.7	56.7	74	48.5	0	2	248	0.00	29.950 
05:25	56.7	56.7	56.7	74	48.5	0	2	248	0.00	29.950 
05:30	56.6	56.6	56.6	74	48.4	0	2	248	0.00	29.949 
05:35	56.6	56.6	56.6	74	48.4	0	2	248	0.00	29.949 
05:40	56.5	56.5	56.5	74	48.3	0	2	248	0.00	29.949 
05:45	56.5	56.5	56.5	75	48.7	0	1	248	0.00	29.955 
05:50	56.3	56.3	56.3	75	48.5	0	2	248	0.00	29.955 
05:55	56.3	56.3	56.3	75	48.5	0	1	248	0.00	29.955 
06:00	56.2	56.2	56.2	76	48.7	0	1	248	0.00	29.955 
06:05	56.2	56.2	56.2	76	48.7	0	1	248	0.00	29.955 
06:10	56.0	56.0	56.0	76	48.5	0	2	248	0.00	29.955 
06:15	56.0	56.0	56.0	76	48.5	0	2	248	0.00	29.964 
06:20	56.0	56.0	56.0	77	48.9	0	1	248	0.00	29.964 
06:25	55.9	55.9	55.9	77	48.8	0	2	248	0.00	29.964 
06:30	55.9	55.9	55.9	77	48.8	0	2	248	0.00	29.970 
06:35	55.9	55.9	55.9	77	48.8	0	2	248	0.00	29.970 
06:40	55.9	55.9	55.9	77	48.8	0	1	248	0.00	29.970 
06:45	55.7	55.7	55.7	77	48.6	0	1	248	0.00	29.978 
06:50	55.7	55.7	55.7	77	48.6	0	0	---	0.00	29.978 
06:55	55.7	55.7	55.7	78	48.9	0	0	---	0.00	29.978 
07:00	55.7	55.7	55.7	78	48.9	0	0	---	0.00	29.984 
07:05	55.6	55.6	55.6	78	48.8	0	0	---	0.00	29.984 
07:10	55.4	55.4	55.4	79	49.0	0	2	0	0.00	29.984 
07:15	55.4	55.4	55.4	79	49.0	0	1	0	0.00	29.986 
07:20	55.3	55.3	55.3	79	48.9	0	1	0	0.00	29.986 
07:25	55.1	55.1	55.1	80	49.0	0	2	0	0.00	29.986 
07:30	55.0	55.0	55.0	80	48.9	0	1	0	0.00	29.997 
07:35	54.8	54.8	54.8	81	49.1	0	1	0	0.00	29.997 
07:40	54.7	54.7	54.7	81	49.0	0	1	0	0.00	29.997 
07:45	54.7	54.7	54.7	80	48.7	0	2	0	0.00	30.002 
07:50	54.5	54.5	54.5	81	48.8	0	2	0	0.00	30.002 
07:55	54.5	54.5	54.5	81	48.8	0	2	0	0.00	30.002 
08:00	54.4	54.4	54.4	80	48.4	0	2	0	0.00	30.015 
08:05	54.4	54.4	54.4	80	48.4	0	2	292	0.00	30.015 
08:10	54.2	54.2	54.2	80	48.2	0	1	292	0.00	30.015 
08:15	54.1	54.1	54.1	80	48.1	0	3	248	0.00	30.014 
08:20	54.1	54.1	54.1	80	48.1	0	3	338	0.00	30.014 
08:25	53.9	53.9	53.9	80	47.9	0	2	270	0.00	30.014 
08:30	53.9	53.9	53.9	80	47.9	0	1	270	0.00	30.027 
08:35	53.8	53.8	53.8	80	47.8	0	1	270	0.00	30.027 
08:40	53.6	53.6	53.6	80	47.6	0	1	270	0.00	30.027 
08:45	53.5	53.5	53.5	81	47.8	0	1	270	0.00	30.033 
08:50	53.5	53.5	53.5	81	47.8	0	1	270	0.00	30.033 
08:55	53.5	53.5	53.5	81	47.8	0	1	270	0.00	30.033 
09:00	53.3	53.3	53.3	81	47.6	0	2	22	0.00	30.041 
09:05	53.2	53.2	53.2	81	47.5	0	2	270	0.00	30.041 
09:10	53.2	53.2	53.2	81	47.5	0	1	270	0.00	30.041 
09:15	53.1	53.1	53.1	81	47.4	0	3	292	0.00	30.043 
09:20	52.9	52.9	52.9	81	47.2	0	2	292	0.00	30.043 
09:25	52.6	52.6	52.6	81	46.9	0	2	292	0.00	30.043 
09:30	52.3	52.3	52.3	81	46.6	0	2	315	0.00	30.051 
09:35	52.2	52.2	52.2	81	46.5	0	3	315	0.00	30.051 
09:40	52.0	52.0	52.0	81	46.4	0	2	338	0.00	30.051 
09:45	51.9	51.9	51.9	80	45.9	1	2	315	0.00	30.049 
09:50	51.9	51.9	51.9	80	45.9	0	1	315	0.00	30.049 
09:55	51.7	51.7	51.7	79	45.4	0	2	315	0.00	30.049 
10:00	51.7	51.7	51.7	79	45.4	0	2	315	0.00	30.059 
10:05	51.7	51.7	51.7	78	45.1	0	3	0	0.00	30.059 
10:10	51.9	51.9	51.9	78	45.3	0	1	0	0.00	30.059 
10:15	52.0	52.0	52.0	77	45.0	0	3	248	0.00	30.059 
10:20	52.2	52.2	52.2	77	45.2	0	3	22	0.00	30.059 
10:25	52.2	52.2	52.2	76	44.9	0	1	22	0.00	30.059 
10:30	52.2	52.2	52.2	75	44.5	0	2	22	0.00	30.060 
10:35	52.0	52.0	52.0	75	44.3	0	2	22	0.00	30.060 
10:40	52.0	52.0	52.0	74	44.0	0	2	338	0.00	30.060 
10:45	52.0	52.0	52.0	75	44.3	0	2	270	0.00	30.061 
10:50	52.0	52.0	52.0	74	44.0	0	1	292	0.00	30.061 
10:55	52.0	52.0	52.0	74	44.0	0	2	45	0.00	30.061 
11:00	52.2	52.2	52.2	74	44.2	0	1	45	0.00	30.064 
11:05	52.3	52.3	52.3	74	44.3	0	2	45	0.00	30.064 
11:10	52.5	52.5	52.5	73	44.1	0	2	45	0.00	30.064 
11:15	52.5	52.5	52.5	73	44.1	0	1	45	0.00	30.067 
11:20	52.6	52.6	52.6	74	44.6	0	1	45	0.00	30.067 
11:25	52.9	52.9	52.9	74	44.8	0	1	45	0.00	30.067 
11:30	53.2	53.2	53.2	73	44.8	0	2	45	0.00	30.067 
11:35	53.2	53.2	53.2	73	44.8	0	1	22	0.00	30.067 
11:40	53.2	53.2	53.2	72	44.4	0	2	0	0.00	30.067 
11:45	53.2	53.2	53.2	73	44.8	0	2	0	0.00	30.072 
11:50	53.2	53.2	53.2	73	44.8	0	1	0	0.00	30.072 
11:55	53.3	53.3	53.3	74	45.2	0	2	0	0.00	30.072 
12:00	53.5	53.5	53.5	75	45.8	0	1	0	0.00	30.066 
12:05	53.3	53.3	53.3	74	45.2	0	1	0	0.00	30.066 
12:10	53.2	53.2	53.2	74	45.1	0	2	0	0.00	30.066 
12:15	52.9	52.9	52.9	75	45.2	0	2	0	0.00	30.060 
12:20	52.9	52.9	52.9	76	45.5	0	2	0	0.00	30.060 
12:25	52.9	52.9	52.9	76	45.5	0	3	338	0.00	30.060 
12:30	53.1	53.1	53.1	75	45.4	1	4	270	0.00	30.061 
12:35	53.1	53.1	53.1	75	45.4	0	2	0	0.00	30.061 
12:40	53.1	53.1	53.1	75	45.4	0	2	0	0.00	30.061 
12:45	53.1	53.1	53.1	74	45.0	0	2	0	0.00	30.060 
12:50	53.1	53.1	53.1	73	44.7	0	1	0	0.00	30.060 
12:55	53.2	53.2	53.2	72	44.4	0	2	0	0.00	30.060 
13:00	53.2	53.2	53.2	71	44.0	0	1	292	0.00	30.058 
13:05	53.2	53.2	53.2	71	44.0	0	2	292	0.00	30.058 
13:10	53.3	53.3	53.3	71	44.1	0	3	315	0.00	30.058 
13:15	53.5	53.5	53.5	70	44.0	0	2	315	0.00	30.058 
13:20	53.5	53.5	53.5	68	43.2	0	3	315	0.00	30.058 
13:25	53.5	53.5	53.5	65	42.0	0	2	0	0.00	30.058 
13:30	53.5	53.5	53.5	58	39.1	1	3	292	0.00	30.059 
13:35	53.5	53.5	53.5	56	38.2	0	3	292	0.00	30.059 
13:40	53.5	53.5	53.5	57	38.6	0	2	0	0.00	30.059 
13:45	53.3	53.3	53.3	57	38.5	0	2	292	0.00	30.060 
13:50	53.3	53.3	53.3	58	38.9	0	2	292	0.00	30.060 
13:55	53.5	53.5	53.5	58	39.1	0	1	292	0.00	30.060 
14:00	53.5	53.5	53.5	56	38.2	0	1	292	0.00	30.060 
14:05	53.3	53.3	53.3	51	35.6	0	1	292	0.00	30.060 
14:10	53.2	53.2	53.2	46	33.0	0	2	0	0.00	30.060 
14:15	53.2	53.2	53.2	47	33.5	0	2	0	0.00	30.061 
14:20	53.1	53.1	53.1	48	33.9	0	2	0	0.00	30.061 
14:25	53.1	53.1	53.1	50	35.0	0	2	0	0.00	30.061 
14:30	52.9	52.9	52.9	51	35.3	0	2	0	0.00	30.066 
14:35	52.6	52.6	52.6	52	35.5	0	2	0	0.00	30.066 
14:40	52.5	52.5	52.5	52	35.4	0	3	0	0.00	30.066 
14:45	52.3	52.3	52.3	53	35.7	0	2	0	0.00	30.071 
14:50	52.3	52.3	52.3	55	36.6	0	2	0	0.00	30.071 
14:55	52.2	52.2	52.2	53	35.6	0	2	0	0.00	30.071 
15:00	52.0	52.0	52.0	54	35.9	0	1	0	0.00	30.073 
15:05	52.0	52.0	52.0	54	35.9	0	1	0	0.00	30.073 
15:10	51.9	51.9	51.9	53	35.3	0	2	0	0.00	30.073 
15:15	51.7	51.7	51.7	54	35.6	0	1	0	0.00	30.078 
15:20	51.7	51.7	51.7	56	36.5	0	1	0	0.00	30.078 
15:25	51.9	51.9	51.9	57	37.1	0	1	0	0.00	30.078 
15:30	51.9	51.9	51.9	56	36.7	0	1	0	0.00	30.076 
15:35	51.7	51.7	51.7	57	37.0	0	1	0	0.00	30.076 
15:40	51.7	51.7	51.7	57	37.0	0	1	0	0.00	30.076 
15:45	51.6	51.6	51.6	58	37.3	0	1	0	0.00	30.079 
15:50	51.6	51.6	51.6	59	37.7	0	1	0	0.00	30.079 
15:55	51.4	51.4	51.4	58	37.1	0	1	0	0.00	30.079 
16:00	51.3	51.3	51.3	59	37.5	0	1	0	0.00	30.086 
16:05	51.1	51.1	51.1	60	37.7	0	1	0	0.00	30.086 
16:10	51.0	51.0	51.0	61	38.0	0	1	0	0.00	30.086 
16:15	50.7	50.7	50.7	62	38.2	0	2	0	0.00	30.092 
16:20	50.5	50.5	50.5	62	38.0	0	1	0	0.00	30.092 
16:25	50.4	50.4	50.4	62	37.9	0	1	0	0.00	30.092 
16:30	50.2	50.2	50.2	62	37.7	0	1	0	0.00	30.094 
16:35	50.1	50.1	50.1	62	37.6	0	2	0	0.00	30.094 
16:40	50.1	50.1	50.1	63	38.0	0	1	0	0.00	30.094 
16:45	50.1	50.1	50.1	63	38.0	0	1	0	0.00	30.095 
16:50	49.9	49.9	49.9	64	38.2	0	1	0	0.00	30.095 
16:55	49.8	49.8	49.8	63	37.7	0	1	0	0.00	30.095 
17:00	49.8	49.8	49.8	64	38.1	0	1	0	0.00	30.105 
17:05	49.6	49.6	49.6	64	37.9	0	1	0	0.00	30.105 
17:10	49.6	49.6	49.6	65	38.3	0	1	0	0.00	30.105 
17:15	49.4	49.4	49.4	65	38.1	0	2	0	0.00	30.113 
17:20	49.1	49.1	49.1	67	38.6	0	0	---	0.00	30.113 
17:25	48.8	48.8	48.8	68	38.7	0	0	---	0.00	30.113 
17:30	48.5	48.5	48.5	70	39.2	0	0	---	0.00	30.114 
17:35	48.3	48.3	48.3	70	39.0	0	0	---	0.00	30.114 
17:40	48.2	48.2	48.2	70	38.9	0	0	---	0.00	30.114 
17:45	48.0	48.0	48.0	71	39.1	0	0	---	0.00	30.124 
17:50	47.9	47.9	47.9	71	39.0	0	1	0	0.00	30.124 
17:55	47.9	47.9	47.9	71	39.0	0	1	0	0.00	30.124 
18:00	47.7	47.7	47.7	72	39.1	0	1	0	0.00	30.127 
18:05	47.6	47.6	47.6	73	39.4	0	2	0	0.00	30.127 
18:10	47.4	47.4	47.4	74	39.5	0	1	0	0.00	30.127 
18:15	47.1	47.1	47.1	73	38.9	0	3	0	0.00	30.141 
18:20	47.0	47.0	47.0	74	39.1	0	0	---	0.00	30.141 
18:25	47.0	47.0	47.0	75	39.5	0	1	338	0.00	30.141 
18:30	46.8	46.8	46.8	75	39.3	0	1	338	0.00	30.137 
18:35	46.7	46.7	46.7	76	39.5	0	1	338	0.00	30.137 
18:40	46.7	46.7	46.7	76	39.5	0	2	338	0.00	30.137 
18:45	46.5	46.5	46.5	76	39.3	0	0	---	0.00	30.139 
18:50	46.5	46.5	46.5	76	39.3	0	0	---	0.00	30.139 
18:55	46.4	46.4	46.4	76	39.3	0	0	---	0.00	30.139 
19:00	46.5	46.5	46.5	76	39.3	0	2	338	0.00	30.145 
19:05	46.5	46.5	46.5	76	39.3	0	1	338	0.00	30.145 
19:10	46.5	46.5	46.5	76	39.3	0	0	---	0.00	30.145 
19:15	46.5	46.5	46.5	76	39.3	0	0	---	0.00	30.147 
19:20	46.5	46.5	46.5	77	39.7	0	1	338	0.00	30.147 
19:25	46.5	46.5	46.5	77	39.7	0	0	---	0.00	30.147 
19:30	46.5	46.5	46.5	77	39.7	0	0	---	0.00	30.148 
19:35	46.5	46.5	46.5	77	39.7	0	1	338	0.00	30.148 
19:40	46.5	46.5	46.5	76	39.3	0	1	338	0.00	30.148 
19:45	46.5	46.5	46.5	77	39.7	0	0	---	0.00	30.146 
19:50	46.5	46.5	46.5	76	39.3	0	0	---	0.00	30.146 
19:55	46.5	46.5	46.5	77	39.7	0	0	---	0.00	30.146 
20:00	46.5	46.5	46.5	76	39.3	0	0	---	0.00	30.148 
20:05	46.5	46.5	46.5	75	39.0	0	0	---	0.00	30.148 
20:10	46.5	46.5	46.5	76	39.3	0	0	---	0.00	30.148 
20:15	46.5	46.5	46.5	75	39.0	0	0	---	0.00	30.152 
20:20	46.5	46.5	46.5	76	39.3	0	0	---	0.00	30.152 
20:25	46.7	46.7	46.7	75	39.2	0	0	---	0.00	30.152 
20:30	46.7	46.7	46.7	76	39.5	0	0	---	0.00	30.156 
20:35	46.7	46.7	46.7	76	39.5	0	0	---	0.00	30.156 
20:40	46.7	46.7	46.7	75	39.2	0	2	0	0.00	30.156 
20:45	46.7	46.7	46.7	75	39.2	0	0	---	0.00	30.161 
20:50	46.7	46.7	46.7	76	39.5	0	1	0	0.00	30.161 
20:55	46.7	46.7	46.7	76	39.5	0	1	0	0.00	30.161 
21:00	46.7	46.7	46.7	76	39.5	0	1	0	0.00	30.150 
21:05	46.7	46.7	46.7	76	39.5	0	1	0	0.00	30.150 
21:10	46.5	46.5	46.5	76	39.3	0	2	0	0.00	30.150 
21:15	46.5	46.5	46.5	76	39.3	0	1	0	0.00	30.156 
21:20	46.5	46.5	46.5	76	39.3	0	2	22	0.00	30.156 
21:25	46.5	46.5	46.5	76	39.3	0	1	22	0.00	30.156 
21:30	46.7	46.7	46.7	76	39.5	0	1	22	0.00	30.159 
21:35	46.7	46.7	46.7	75	39.2	0	2	22	0.00	30.159 
21:40	46.7	46.7	46.7	74	38.9	0	2	68	0.00	30.159 
21:45	46.8	46.8	46.8	73	38.6	0	2	68	0.00	30.156 
21:50	46.8	46.8	46.8	73	38.6	0	2	68	0.00	30.156 
21:55	47.0	47.0	47.0	73	38.8	0	2	68	0.00	30.156 
22:00	47.0	47.0	47.0	72	38.4	0	1	68	0.00	30.159 
22:05	47.0	47.0	47.0	72	38.4	0	2	112	0.00	30.159 
22:10	47.1	47.1	47.1	72	38.5	0	5	90	0.00	30.159 
22:15	47.1	47.1	47.1	71	38.2	0	2	135	0.00	30.166 
22:20	47.1	47.1	47.1	70	37.8	0	2	135	0.00	30.166 
22:25	47.1	47.1	47.1	71	38.2	0	1	135	0.00	30.166 
22:30	47.1	47.1	47.1	69	37.5	1	4	135	0.00	30.164 
22:35	47.3	47.3	47.3	69	37.7	1	3	45	0.00	30.164 
22:40	47.3	47.3	47.3	68	37.3	1	4	338	0.00	30.164 
22:45	47.3	47.3	47.3	69	37.7	1	3	90	0.00	30.161 
22:50	47.3	47.3	47.3	68	37.3	1	5	112	0.00	30.161 
22:55	47.3	47.3	47.3	68	37.3	1	3	112	0.00	30.161 
23:00	47.3	47.3	47.3	68	37.3	0	2	22	0.00	30.157 
23:05	47.1	47.1	47.1	68	37.1	0	3	45	0.00	30.157 
23:10	47.1	47.1	47.1	68	37.1	1	3	45	0.00	30.157 
23:15	47.1	47.1	47.1	67	36.7	0	4	90	0.00	30.153 
23:20	47.1	47.1	47.1	67	36.7	1	4	112	0.00	30.153 
23:25	47.1	47.1	47.1	66	36.3	1	4	135	0.00	30.153 
23:30	47.1	47.1	47.1	65	35.9	1	3	135	0.00	30.166 
23:35	47.1	47.1	47.1	65	35.9	1	5	112	0.00	30.166 
23:40	47.3	47.3	47.3	64	35.7	1	6	112	0.00	30.166 
23:45	47.1	47.1	47.1	64	35.6	1	3	90	0.00	30.169 
23:50	47.1	47.1	47.1	64	35.6	0	2	22	0.00	30.169 
23:55	47.1	47.1	47.1	64	35.6	0	2	22	0.00	30.169 

CoCoRaHS
IN-AL-39
A2 Web Hosting
Creative Commons License
GoDaddy
search engine by freefind advanced

loaded 2018-11-19 19:04:16 • last modified 2010-11-18 10:43:29
Privacy PolicyDisclaimer
• wx.awcolley.com is powered by PmWiki v.2002016 •
• all content (unless otherwise noted) © 2018 A W Colley